createdAt,value
2023-02-16T00:02:19.407Z,5.53
2023-02-16T00:04:45.650Z,5.44
2023-02-16T00:07:11.913Z,5.45
2023-02-16T00:09:38.217Z,5.48
2023-02-16T00:12:04.591Z,5.47
2023-02-16T00:14:30.874Z,5.60
2023-02-16T00:16:57.174Z,5.67
2023-02-16T00:19:23.393Z,5.66
2023-02-16T00:21:49.623Z,5.78
2023-02-16T00:24:15.896Z,5.83
2023-02-16T00:26:42.175Z,5.86
2023-02-16T00:29:08.453Z,5.84
2023-02-16T00:31:34.914Z,5.73
2023-02-16T00:34:01.235Z,5.70
2023-02-16T00:36:27.480Z,5.68
2023-02-16T00:38:53.740Z,5.70
2023-02-16T00:41:19.993Z,5.68
2023-02-16T00:43:46.251Z,5.64
2023-02-16T00:46:12.567Z,5.64
2023-02-16T00:48:38.823Z,5.61
2023-02-16T00:51:16.745Z,5.66
2023-02-16T00:53:50.357Z,5.61
2023-02-16T00:56:16.759Z,5.59
2023-02-16T00:58:43.062Z,5.61
2023-02-16T01:01:09.412Z,5.59
2023-02-16T01:03:35.729Z,5.59
2023-02-16T01:06:02.053Z,5.65
2023-02-16T01:08:28.356Z,5.50
2023-02-16T01:10:54.617Z,5.50
2023-02-16T01:13:20.879Z,5.55
2023-02-16T01:15:47.324Z,5.61
2023-02-16T01:18:13.656Z,5.73
2023-02-16T01:20:39.905Z,5.76
2023-02-16T01:23:06.280Z,5.73
2023-02-16T01:25:32.576Z,5.58
2023-02-16T01:27:58.830Z,5.65
2023-02-16T01:30:25.242Z,5.69
2023-02-16T01:32:51.687Z,5.77
2023-02-16T01:35:18.051Z,5.77
2023-02-16T01:37:44.355Z,5.69
2023-02-16T01:40:10.651Z,5.67
2023-02-16T01:42:36.961Z,5.56
2023-02-16T01:45:03.310Z,5.32
2023-02-16T01:47:29.560Z,5.33
2023-02-16T01:49:55.830Z,5.26
2023-02-16T01:52:22.228Z,5.23
2023-02-16T01:54:48.536Z,5.20
2023-02-16T01:57:14.777Z,5.13
2023-02-16T01:59:41.064Z,5.21
2023-02-16T02:02:07.354Z,5.27
2023-02-16T02:04:33.609Z,5.26
2023-02-16T02:06:59.876Z,5.28
2023-02-16T02:09:26.136Z,5.17
2023-02-16T02:11:52.432Z,5.08
2023-02-16T02:14:18.730Z,5.17
2023-02-16T02:16:44.995Z,5.22
2023-02-16T02:19:11.294Z,5.13
2023-02-16T02:21:37.640Z,5.16
2023-02-16T02:24:03.937Z,5.17
2023-02-16T02:26:30.265Z,5.15
2023-02-16T02:28:56.537Z,5.05
2023-02-16T02:31:22.953Z,5.00
2023-02-16T02:33:49.355Z,4.91
2023-02-16T02:36:15.629Z,4.81
2023-02-16T02:38:41.882Z,4.67
2023-02-16T02:41:08.156Z,4.73
2023-02-16T02:43:34.396Z,4.67
2023-02-16T02:46:00.667Z,4.42
2023-02-16T02:48:26.925Z,4.25
2023-02-16T02:50:53.159Z,4.29
2023-02-16T02:53:19.398Z,4.41
2023-02-16T02:55:45.993Z,4.52
2023-02-16T02:58:12.235Z,4.54
2023-02-16T03:00:38.592Z,4.48
2023-02-16T03:03:04.939Z,4.45
2023-02-16T03:05:31.278Z,4.56
2023-02-16T03:07:57.527Z,4.61
2023-02-16T03:10:23.836Z,4.62
2023-02-16T03:12:50.158Z,4.63
2023-02-16T03:15:16.416Z,4.65
2023-02-16T03:17:42.683Z,4.62
2023-02-16T03:20:08.957Z,4.62
2023-02-16T03:22:35.367Z,4.63
2023-02-16T03:25:01.660Z,4.61
2023-02-16T03:27:27.985Z,4.67
2023-02-16T03:29:54.335Z,4.72
2023-02-16T03:32:20.589Z,4.72
2023-02-16T03:34:46.852Z,4.68
2023-02-16T03:37:13.232Z,4.82
2023-02-16T03:39:39.481Z,4.87
2023-02-16T03:42:05.727Z,4.82
2023-02-16T03:44:32.016Z,4.88
2023-02-16T03:46:58.272Z,4.81
2023-02-16T03:49:24.545Z,4.82
2023-02-16T03:51:50.801Z,4.82
2023-02-16T03:54:17.042Z,4.89
2023-02-16T03:56:43.353Z,4.99
2023-02-16T03:59:09.683Z,5.07
2023-02-16T04:01:35.951Z,5.16
2023-02-16T04:04:02.296Z,5.20
2023-02-16T04:06:28.676Z,5.23
2023-02-16T04:08:54.946Z,5.20
2023-02-16T04:11:21.193Z,5.21
2023-02-16T04:14:07.422Z,5.17
2023-02-16T04:16:34.098Z,5.18
2023-02-16T04:19:00.377Z,5.21
2023-02-16T04:21:26.647Z,5.19
2023-02-16T04:23:52.911Z,5.23
2023-02-16T04:26:19.266Z,5.17
2023-02-16T04:28:45.502Z,5.15
2023-02-16T04:31:11.966Z,5.25
2023-02-16T04:33:38.379Z,5.26
2023-02-16T04:36:04.635Z,5.25
2023-02-16T04:38:30.944Z,5.25
2023-02-16T04:40:57.253Z,5.14
2023-02-16T04:43:23.498Z,5.14
2023-02-16T04:45:49.852Z,5.15
2023-02-16T04:48:16.191Z,5.17
2023-02-16T04:50:42.441Z,5.18
2023-02-16T04:53:08.708Z,5.17
2023-02-16T04:55:35.048Z,5.22
2023-02-16T04:58:01.569Z,5.16
2023-02-16T05:00:27.840Z,5.15
2023-02-16T05:02:54.129Z,5.21
2023-02-16T05:05:20.399Z,5.21
2023-02-16T05:07:46.679Z,5.18
2023-02-16T05:10:13.046Z,5.16
2023-02-16T05:12:39.321Z,5.15
2023-02-16T05:15:05.674Z,5.13
2023-02-16T05:17:32.109Z,5.08
2023-02-16T05:19:58.377Z,5.14
2023-02-16T05:22:24.662Z,5.13
2023-02-16T05:24:50.940Z,5.12
2023-02-16T05:27:17.250Z,5.08
2023-02-16T05:29:43.509Z,5.15
2023-02-16T05:32:09.860Z,5.21
2023-02-16T05:34:36.170Z,5.21
2023-02-16T05:37:02.406Z,5.20
2023-02-16T05:39:28.679Z,5.25
2023-02-16T05:41:54.989Z,5.21
2023-02-16T05:44:21.280Z,5.19
2023-02-16T05:46:47.596Z,5.12
2023-02-16T05:49:13.867Z,5.08
2023-02-16T05:51:40.168Z,5.07
2023-02-16T05:54:06.438Z,4.98
2023-02-16T05:56:34.404Z,5.01
2023-02-16T05:59:00.662Z,4.96
2023-02-16T06:01:26.921Z,4.90
2023-02-16T06:03:53.232Z,4.92
2023-02-16T06:06:19.552Z,4.94
2023-02-16T06:08:45.828Z,4.93
2023-02-16T06:11:12.101Z,4.87
2023-02-16T06:13:38.413Z,4.85
2023-02-16T06:16:05.147Z,4.80
2023-02-16T06:18:31.461Z,4.75
2023-02-16T06:20:58.028Z,4.73
2023-02-16T06:23:24.646Z,4.71
2023-02-16T06:25:50.910Z,4.66
2023-02-16T06:28:17.312Z,4.47
2023-02-16T06:30:43.991Z,4.24
2023-02-16T06:33:10.398Z,4.31
2023-02-16T06:35:36.715Z,4.25
2023-02-16T06:38:03.029Z,4.13
2023-02-16T06:40:29.275Z,4.25
2023-02-16T06:42:55.565Z,4.35
2023-02-16T06:45:21.861Z,4.47
2023-02-16T06:47:48.467Z,4.55
2023-02-16T06:50:14.788Z,4.65
2023-02-16T06:52:41.130Z,4.68
2023-02-16T06:55:07.537Z,4.71
2023-02-16T06:57:33.817Z,4.74
2023-02-16T07:00:00.121Z,4.79
2023-02-16T07:02:26.386Z,4.75
2023-02-16T07:04:52.661Z,4.76
2023-02-16T07:07:19.250Z,4.69
2023-02-16T07:09:45.803Z,4.66
2023-02-16T07:12:12.227Z,4.74
2023-02-16T07:14:38.801Z,4.78
2023-02-16T07:17:06.082Z,4.81
2023-02-16T07:19:32.498Z,4.83
2023-02-16T07:21:58.962Z,4.91
2023-02-16T07:24:25.436Z,4.92
2023-02-16T07:26:52.347Z,4.94
2023-02-16T07:29:21.132Z,5.01
2023-02-16T07:31:47.888Z,5.00
2023-02-16T07:34:14.736Z,5.02
2023-02-16T07:36:41.166Z,5.06
2023-02-16T07:39:07.702Z,5.07
2023-02-16T07:41:34.128Z,5.11
2023-02-16T07:44:00.624Z,5.08
2023-02-16T07:46:27.197Z,5.08
2023-02-16T07:48:53.692Z,4.95
2023-02-16T07:51:20.046Z,4.96
2023-02-16T07:53:46.472Z,5.07
2023-02-16T07:56:12.737Z,4.96
2023-02-16T07:58:39.016Z,5.14
2023-02-16T08:01:05.557Z,5.26
2023-02-16T08:03:31.994Z,5.29
2023-02-16T08:05:58.227Z,5.29
2023-02-16T08:08:24.509Z,5.35
2023-02-16T08:10:50.815Z,5.43
2023-02-16T08:13:17.129Z,5.47
2023-02-16T08:15:43.461Z,5.45
2023-02-16T08:18:09.771Z,5.55
2023-02-16T08:20:57.637Z,5.62
2023-02-16T08:23:22.318Z,5.78
2023-02-16T08:25:48.698Z,5.77
2023-02-16T08:28:14.951Z,5.82
2023-02-16T08:30:41.291Z,5.88
2023-02-16T08:33:07.582Z,5.92
2023-02-16T08:35:33.952Z,5.90
2023-02-16T08:38:00.247Z,6.02
2023-02-16T08:40:26.533Z,6.11
2023-02-16T08:42:52.813Z,6.13
2023-02-16T08:45:19.173Z,5.80
2023-02-16T08:47:45.458Z,5.96
2023-02-16T08:50:11.802Z,6.02
2023-02-16T08:52:38.162Z,6.25
2023-02-16T08:55:04.788Z,6.38
2023-02-16T08:57:31.054Z,6.47
2023-02-16T08:59:57.386Z,6.59
2023-02-16T09:02:23.706Z,6.63
2023-02-16T09:04:50.059Z,6.69
2023-02-16T09:07:16.496Z,6.78
2023-02-16T09:09:42.918Z,6.93
2023-02-16T09:12:09.176Z,6.99
2023-02-16T09:14:35.456Z,6.99
2023-02-16T09:17:01.798Z,6.98
2023-02-16T09:19:28.191Z,7.11
2023-02-16T09:21:54.581Z,7.20
2023-02-16T09:24:20.869Z,7.16
2023-02-16T09:26:47.141Z,6.97
2023-02-16T09:29:13.412Z,7.00
2023-02-16T09:31:39.732Z,7.01
2023-02-16T09:34:06.124Z,7.03
2023-02-16T09:36:32.412Z,6.94
2023-02-16T09:38:58.651Z,7.17
2023-02-16T09:41:24.904Z,7.35
2023-02-16T09:43:51.168Z,7.41
2023-02-16T09:46:17.802Z,7.43
2023-02-16T09:48:44.098Z,7.55
2023-02-16T09:51:10.356Z,7.64
2023-02-16T09:53:36.690Z,7.63
2023-02-16T09:56:03.307Z,7.72
2023-02-16T09:58:29.985Z,7.83
2023-02-16T10:00:56.421Z,7.82
2023-02-16T10:03:22.702Z,7.87
2023-02-16T10:05:49.235Z,7.96
2023-02-16T10:08:15.667Z,7.96
2023-02-16T10:10:48.353Z,8.03
2023-02-16T10:13:14.905Z,8.12
2023-02-16T10:15:41.377Z,8.28
2023-02-16T10:18:07.947Z,8.25
2023-02-16T10:20:34.437Z,8.40
2023-02-16T10:23:00.924Z,8.55
2023-02-16T10:25:28.305Z,8.63
2023-02-16T10:27:55.844Z,8.65
2023-02-16T10:30:22.565Z,8.50
2023-02-16T10:32:49.073Z,8.43
2023-02-16T10:35:15.456Z,8.19
2023-02-16T10:37:41.961Z,8.26
2023-02-16T10:40:10.719Z,8.55
2023-02-16T10:42:37.467Z,8.75
2023-02-16T10:45:04.013Z,8.74
2023-02-16T10:47:30.570Z,8.77
2023-02-16T10:49:56.988Z,8.80
2023-02-16T10:52:23.262Z,8.92
2023-02-16T10:54:49.642Z,8.96
2023-02-16T10:57:16.031Z,8.83
2023-02-16T10:59:42.501Z,8.72
2023-02-16T11:02:08.929Z,8.88
2023-02-16T11:04:35.302Z,8.95
2023-02-16T11:07:01.685Z,9.01
2023-02-16T11:09:28.012Z,9.11
2023-02-16T11:11:54.303Z,9.14
2023-02-16T11:14:20.604Z,8.95
2023-02-16T11:16:46.900Z,9.14
2023-02-16T11:19:13.221Z,9.30
2023-02-16T11:21:39.554Z,9.26
2023-02-16T11:24:05.859Z,9.14
2023-02-16T11:26:32.129Z,9.17
2023-02-16T11:28:58.406Z,9.30
2023-02-16T11:31:24.874Z,9.38
2023-02-16T11:33:51.292Z,9.61
2023-02-16T11:36:17.598Z,9.72
2023-02-16T11:38:43.943Z,9.75
2023-02-16T11:41:10.341Z,9.69
2023-02-16T11:43:36.628Z,9.53
2023-02-16T11:46:03.066Z,9.50
2023-02-16T11:48:29.420Z,9.57
2023-02-16T11:50:55.697Z,9.52
2023-02-16T11:53:21.992Z,9.59
2023-02-16T11:55:48.367Z,9.76
2023-02-16T11:58:14.701Z,9.93
2023-02-16T12:00:40.943Z,10.06
2023-02-16T12:03:07.258Z,10.16
2023-02-16T12:05:33.614Z,10.34
2023-02-16T12:08:00.081Z,10.47
2023-02-16T12:10:26.363Z,10.57
2023-02-16T12:12:54.671Z,10.58
2023-02-16T12:15:21.033Z,10.30
2023-02-16T12:17:47.292Z,10.28
2023-02-16T12:20:13.587Z,10.41
2023-02-16T12:22:39.962Z,10.43
2023-02-16T12:25:06.184Z,10.14
2023-02-16T12:27:32.425Z,10.37
2023-02-16T12:29:58.684Z,10.45
2023-02-16T12:32:25.037Z,10.27
2023-02-16T12:34:51.389Z,10.43
2023-02-16T12:37:17.648Z,10.60
2023-02-16T12:39:45.787Z,10.72
2023-02-16T12:42:12.117Z,10.61
2023-02-16T12:44:41.455Z,10.69
2023-02-16T12:47:08.020Z,10.70
2023-02-16T12:49:34.879Z,10.78
2023-02-16T12:52:05.397Z,10.68
2023-02-16T12:54:31.861Z,10.64
2023-02-16T12:56:58.414Z,10.38
2023-02-16T12:59:25.292Z,10.50
2023-02-16T13:01:51.707Z,10.64
2023-02-16T13:04:18.039Z,10.77
2023-02-16T13:06:44.750Z,10.87
2023-02-16T13:09:11.001Z,10.95
2023-02-16T13:11:37.343Z,11.04
2023-02-16T13:14:03.720Z,11.07
2023-02-16T13:16:31.228Z,11.10
2023-02-16T13:18:57.594Z,10.98
2023-02-16T13:21:23.857Z,11.06
2023-02-16T13:23:50.225Z,11.07
2023-02-16T13:26:16.596Z,11.11
2023-02-16T13:28:43.076Z,11.00
2023-02-16T13:31:09.451Z,10.84
2023-02-16T13:33:35.740Z,10.98
2023-02-16T13:36:02.370Z,11.14
2023-02-16T13:38:28.883Z,11.26
2023-02-16T13:40:55.140Z,11.16
2023-02-16T13:43:21.408Z,10.91
2023-02-16T13:45:47.701Z,11.11
2023-02-16T13:48:13.987Z,11.15
2023-02-16T13:50:40.245Z,11.13
2023-02-16T13:53:06.617Z,11.14
2023-02-16T13:55:32.902Z,11.12
2023-02-16T13:57:59.265Z,11.07
2023-02-16T14:00:25.612Z,11.04
2023-02-16T14:02:51.911Z,10.97
2023-02-16T14:05:18.216Z,10.88
2023-02-16T14:07:44.687Z,10.82
2023-02-16T14:10:11.184Z,10.72
2023-02-16T14:12:37.592Z,10.61
2023-02-16T14:15:03.938Z,10.30
2023-02-16T14:17:30.193Z,10.21
2023-02-16T14:19:56.496Z,10.20
2023-02-16T14:22:22.774Z,10.24
2023-02-16T14:24:49.055Z,10.17
2023-02-16T14:27:15.303Z,10.12
2023-02-16T14:29:41.577Z,10.07
2023-02-16T14:32:07.856Z,10.01
2023-02-16T14:34:34.159Z,9.98
2023-02-16T14:37:00.484Z,10.00
2023-02-16T14:39:27.106Z,9.92
2023-02-16T14:41:53.366Z,9.89
2023-02-16T14:44:19.608Z,9.94
2023-02-16T14:46:45.966Z,9.94
2023-02-16T14:49:12.303Z,9.86
2023-02-16T14:51:38.612Z,9.82
2023-02-16T14:54:05.090Z,9.75
2023-02-16T14:56:32.048Z,9.70
2023-02-16T14:58:58.382Z,9.61
2023-02-16T15:01:24.720Z,9.43
2023-02-16T15:03:51.095Z,9.21
2023-02-16T15:06:17.398Z,9.18
2023-02-16T15:08:43.719Z,9.06
2023-02-16T15:11:10.029Z,9.09
2023-02-16T15:13:44.411Z,9.18
2023-02-16T15:16:10.780Z,9.25
2023-02-16T15:18:37.162Z,9.42
2023-02-16T15:21:03.439Z,9.39
2023-02-16T15:23:29.782Z,9.42
2023-02-16T15:25:56.414Z,9.47
2023-02-16T15:28:22.762Z,9.48
2023-02-16T15:30:49.108Z,9.33
2023-02-16T15:33:15.429Z,8.92
2023-02-16T15:35:41.703Z,9.03
2023-02-16T15:38:08.042Z,8.90
2023-02-16T15:40:34.369Z,8.85
2023-02-16T15:43:00.619Z,8.88
2023-02-16T15:45:26.998Z,8.81
2023-02-16T15:47:53.315Z,8.80
2023-02-16T15:50:19.568Z,8.58
2023-02-16T15:52:45.849Z,8.44
2023-02-16T15:55:12.137Z,8.49
2023-02-16T15:57:38.469Z,8.35
2023-02-16T16:00:04.701Z,8.38
2023-02-16T16:02:31.011Z,8.15
2023-02-16T16:04:57.275Z,7.96
2023-02-16T16:07:23.652Z,8.02
2023-02-16T16:09:49.990Z,8.10
2023-02-16T16:12:16.225Z,8.15
2023-02-16T16:14:42.519Z,8.22
2023-02-16T16:17:08.812Z,8.17
2023-02-16T16:19:35.082Z,8.16
2023-02-16T16:22:01.332Z,8.21
2023-02-16T16:24:27.629Z,8.19
2023-02-16T16:26:53.911Z,8.17
2023-02-16T16:29:20.145Z,8.13
2023-02-16T16:31:46.477Z,8.10
2023-02-16T16:34:12.837Z,8.14
2023-02-16T16:36:39.157Z,8.18
2023-02-16T16:39:05.403Z,8.21
2023-02-16T16:41:31.634Z,8.31
2023-02-16T16:43:57.919Z,8.29
2023-02-16T16:46:24.174Z,8.29
2023-02-16T16:48:50.484Z,8.26
2023-02-16T16:51:16.793Z,8.17
2023-02-16T16:53:43.073Z,8.09
2023-02-16T16:56:09.363Z,7.98
2023-02-16T16:58:35.647Z,7.86
2023-02-16T17:01:02.173Z,7.81
2023-02-16T17:03:30.462Z,7.76
2023-02-16T17:05:57.537Z,7.67
2023-02-16T17:08:23.787Z,7.60
2023-02-16T17:10:50.069Z,7.55
2023-02-16T17:13:16.415Z,7.52
2023-02-16T17:15:42.711Z,7.34
2023-02-16T17:18:09.005Z,7.28
2023-02-16T17:20:35.322Z,7.42
2023-02-16T17:23:01.685Z,7.49
2023-02-16T17:25:28.001Z,7.63
2023-02-16T17:27:54.352Z,7.70
2023-02-16T17:30:20.719Z,7.63
2023-02-16T17:32:47.044Z,7.69
2023-02-16T17:35:13.398Z,7.63
2023-02-16T17:37:39.640Z,7.65
2023-02-16T17:40:05.903Z,7.63
2023-02-16T17:42:32.192Z,7.79
2023-02-16T17:45:00.752Z,7.85
2023-02-16T17:47:27.013Z,7.82
2023-02-16T17:49:53.263Z,7.86
2023-02-16T17:52:19.612Z,7.89
2023-02-16T17:54:45.897Z,7.93
2023-02-16T17:57:12.153Z,7.92
2023-02-16T17:59:38.550Z,7.98
2023-02-16T18:02:04.810Z,8.01
2023-02-16T18:04:31.100Z,7.96
2023-02-16T18:06:57.453Z,8.00
2023-02-16T18:09:23.724Z,7.84
2023-02-16T18:11:49.966Z,7.74
2023-02-16T18:14:16.255Z,7.44
2023-02-16T18:16:42.528Z,7.37
2023-02-16T18:19:08.769Z,7.40
2023-02-16T18:21:35.042Z,7.48
2023-02-16T18:24:01.357Z,7.32
2023-02-16T18:26:27.648Z,7.32
2023-02-16T18:28:53.922Z,7.04
2023-02-16T18:31:20.403Z,6.91
2023-02-16T18:33:46.674Z,7.05
2023-02-16T18:36:12.930Z,6.92
2023-02-16T18:38:39.269Z,6.63
2023-02-16T18:41:05.584Z,6.59
2023-02-16T18:43:31.850Z,6.85
2023-02-16T18:45:58.190Z,6.95
2023-02-16T18:48:24.485Z,6.90
2023-02-16T18:50:50.748Z,6.87
2023-02-16T18:53:17.042Z,6.82
2023-02-16T18:55:43.419Z,6.83
2023-02-16T18:58:09.702Z,6.89
2023-02-16T19:00:35.962Z,6.85
2023-02-16T19:03:02.263Z,6.44
2023-02-16T19:05:28.507Z,6.44
2023-02-16T19:07:54.816Z,6.35
2023-02-16T19:10:21.068Z,6.41
2023-02-16T19:12:47.313Z,6.44
2023-02-16T19:15:13.595Z,6.47
2023-02-16T19:17:39.847Z,6.31
2023-02-16T19:20:06.160Z,6.32
2023-02-16T19:22:32.407Z,6.32
2023-02-16T19:24:58.770Z,6.39
2023-02-16T19:27:25.129Z,6.45
2023-02-16T19:29:51.370Z,6.49
2023-02-16T19:32:17.725Z,6.59
2023-02-16T19:34:43.972Z,6.58
2023-02-16T19:37:10.216Z,6.53
2023-02-16T19:39:36.508Z,6.50
2023-02-16T19:42:02.789Z,6.56
2023-02-16T19:44:29.202Z,6.65
2023-02-16T19:46:55.439Z,6.72
2023-02-16T19:49:21.680Z,6.73
2023-02-16T19:51:47.949Z,6.65
2023-02-16T19:54:14.180Z,6.58
2023-02-16T19:56:40.435Z,6.50
2023-02-16T19:59:06.678Z,6.49
2023-02-16T20:01:32.942Z,6.51
2023-02-16T20:03:59.258Z,6.39
2023-02-16T20:06:25.567Z,6.55
2023-02-16T20:08:51.804Z,6.51
2023-02-16T20:11:18.101Z,6.49
2023-02-16T20:13:44.406Z,6.44
2023-02-16T20:16:10.695Z,6.38
2023-02-16T20:18:37.045Z,6.28
2023-02-16T20:21:03.320Z,6.22
2023-02-16T20:23:29.661Z,6.14
2023-02-16T20:25:55.953Z,6.13
2023-02-16T20:28:22.228Z,6.12
2023-02-16T20:30:48.534Z,6.11
2023-02-16T20:33:14.825Z,6.00
2023-02-16T20:35:41.089Z,6.02
2023-02-16T20:38:07.336Z,6.10
2023-02-16T20:40:33.596Z,6.07
2023-02-16T20:42:59.847Z,6.16
2023-02-16T20:45:26.163Z,6.15
2023-02-16T20:47:52.442Z,6.34
2023-02-16T20:50:18.833Z,6.22
2023-02-16T20:52:45.104Z,6.34
2023-02-16T20:55:11.360Z,6.20
2023-02-16T20:57:37.603Z,6.15
2023-02-16T21:00:03.849Z,6.16
2023-02-16T21:02:30.171Z,6.20
2023-02-16T21:04:56.442Z,6.19
2023-02-16T21:07:22.710Z,6.22
2023-02-16T21:09:48.977Z,6.22
2023-02-16T21:12:15.214Z,6.27
2023-02-16T21:14:41.512Z,6.33
2023-02-16T21:17:07.804Z,6.44
2023-02-16T21:19:34.092Z,6.43
2023-02-16T21:22:00.370Z,6.49
2023-02-16T21:24:26.649Z,6.69
2023-02-16T21:26:52.926Z,6.76
2023-02-16T21:29:19.161Z,6.80
2023-02-16T21:31:45.547Z,6.74
2023-02-16T21:34:11.898Z,6.75
2023-02-16T21:36:38.137Z,6.81
2023-02-16T21:39:04.928Z,6.88
2023-02-16T21:41:31.248Z,7.08
2023-02-16T21:43:57.510Z,7.06
2023-02-16T21:46:23.840Z,7.12
2023-02-16T21:48:50.161Z,7.24
2023-02-16T21:51:16.392Z,7.26
2023-02-16T21:53:42.620Z,6.78
2023-02-16T21:56:08.856Z,6.66
2023-02-16T21:58:35.097Z,6.85
2023-02-16T22:01:01.414Z,6.96
2023-02-16T22:03:27.762Z,7.06
2023-02-16T22:05:54.071Z,7.11
2023-02-16T22:08:20.367Z,7.11
2023-02-16T22:10:46.657Z,7.06
2023-02-16T22:13:12.970Z,7.09
2023-02-16T22:15:39.213Z,7.12
2023-02-16T22:18:05.472Z,7.21
2023-02-16T22:20:31.723Z,7.26
2023-02-16T22:22:57.970Z,7.28
2023-02-16T22:25:24.271Z,7.28
2023-02-16T22:27:50.647Z,7.33
2023-02-16T22:30:16.930Z,7.28
2023-02-16T22:32:43.243Z,7.26
2023-02-16T22:35:09.504Z,7.28
2023-02-16T22:37:35.790Z,7.25
2023-02-16T22:40:02.022Z,7.26
2023-02-16T22:42:28.666Z,7.17
2023-02-16T22:44:54.976Z,7.09
2023-02-16T22:47:21.243Z,7.16
2023-02-16T22:49:47.555Z,7.15
2023-02-16T22:52:13.850Z,7.16
2023-02-16T22:54:40.151Z,7.13
2023-02-16T22:57:06.444Z,7.14
2023-02-16T22:59:32.702Z,6.99
2023-02-16T23:01:58.948Z,6.99
2023-02-16T23:04:25.238Z,6.99
2023-02-16T23:06:51.564Z,7.06
2023-02-16T23:09:17.822Z,7.09
2023-02-16T23:11:44.111Z,7.21
2023-02-16T23:14:10.335Z,7.24
2023-02-16T23:16:36.649Z,7.34
2023-02-16T23:19:03.034Z,7.43
2023-02-16T23:21:29.287Z,7.50
2023-02-16T23:23:55.537Z,7.51
2023-02-16T23:26:21.782Z,7.59
2023-02-16T23:28:48.049Z,7.50
2023-02-16T23:31:14.399Z,7.57
2023-02-16T23:33:40.725Z,7.52
2023-02-16T23:36:07.274Z,7.56
2023-02-16T23:38:33.708Z,7.56
2023-02-16T23:40:59.956Z,7.59
2023-02-16T23:43:26.260Z,7.34
2023-02-16T23:45:52.538Z,7.14
2023-02-16T23:48:18.842Z,7.13
2023-02-16T23:50:45.152Z,7.15
2023-02-16T23:53:11.381Z,7.18
2023-02-16T23:55:37.680Z,7.12
2023-02-16T23:58:03.992Z,7.02
